sensor_id;sensor_type;location;lat;lon;timestamp;pressure;altitude;pressure_sealevel;temperature;humidity
28267;BME280;15525;45.568;5.448;2022-12-13T00:02:16;96767.56;;;4.94;60.82
28267;BME280;15525;45.568;5.448;2022-12-13T00:04:41;96822.41;;;5.09;61.01
28267;BME280;15525;45.568;5.448;2022-12-13T00:07:06;96818.44;;;5.16;61.19
28267;BME280;15525;45.568;5.448;2022-12-13T00:09:32;96813.94;;;5.22;61.15
28267;BME280;15525;45.568;5.448;2022-12-13T00:11:57;96781.59;;;5.05;61.10
28267;BME280;15525;45.568;5.448;2022-12-13T00:14:23;96803.09;;;5.13;61.26
28267;BME280;15525;45.568;5.448;2022-12-13T00:16:48;96802.00;;;5.04;61.04
28267;BME280;15525;45.568;5.448;2022-12-13T00:19:15;96811.56;;;5.10;61.51
28267;BME280;15525;45.568;5.448;2022-12-13T00:21:40;96818.19;;;5.13;61.28
28267;BME280;15525;45.568;5.448;2022-12-13T00:24:06;96796.97;;;5.13;61.41
28267;BME280;15525;45.568;5.448;2022-12-13T00:26:32;96804.94;;;5.08;61.59
28267;BME280;15525;45.568;5.448;2022-12-13T00:29:03;96795.38;;;5.12;61.56
28267;BME280;15525;45.568;5.448;2022-12-13T00:31:29;96786.88;;;5.05;61.65
28267;BME280;15525;45.568;5.448;2022-12-13T00:33:58;96791.41;;;5.09;61.57
28267;BME280;15525;45.568;5.448;2022-12-13T00:36:25;96760.13;;;4.81;61.94
28267;BME280;15525;45.568;5.448;2022-12-13T00:38:50;96754.81;;;4.86;61.99
28267;BME280;15525;45.568;5.448;2022-12-13T00:41:25;96761.44;;;4.79;62.20
28267;BME280;15525;45.568;5.448;2022-12-13T00:43:52;96732.28;;;4.74;61.98
28267;BME280;15525;45.568;5.448;2022-12-13T00:46:19;96766.44;;;4.70;62.48
28267;BME280;15525;45.568;5.448;2022-12-13T00:48:53;96793.19;;;4.69;62.82
28267;BME280;15525;45.568;5.448;2022-12-13T00:51:19;96796.66;;;4.59;62.95
28267;BME280;15525;45.568;5.448;2022-12-13T00:53:45;96773.56;;;4.45;62.85
28267;BME280;15525;45.568;5.448;2022-12-13T00:56:13;96784.97;;;4.45;63.36
28267;BME280;15525;45.568;5.448;2022-12-13T00:58:40;96779.84;;;4.19;64.29
28267;BME280;15525;45.568;5.448;2022-12-13T01:01:11;96780.97;;;4.38;63.82
28267;BME280;15525;45.568;5.448;2022-12-13T01:03:37;96770.13;;;4.44;63.44
28267;BME280;15525;45.568;5.448;2022-12-13T01:06:10;96782.28;;;4.40;63.53
28267;BME280;15525;45.568;5.448;2022-12-13T01:08:37;96765.84;;;4.38;63.76
28267;BME280;15525;45.568;5.448;2022-12-13T01:11:03;96766.41;;;4.50;63.63
28267;BME280;15525;45.568;5.448;2022-12-13T01:13:29;96761.03;;;4.25;64.11
28267;BME280;15525;45.568;5.448;2022-12-13T01:15:54;96761.72;;;3.91;65.66
28267;BME280;15525;45.568;5.448;2022-12-13T01:18:20;96716.22;;;3.94;64.70
28267;BME280;15525;45.568;5.448;2022-12-13T01:21:05;96761.88;;;4.31;64.25
28267;BME280;15525;45.568;5.448;2022-12-13T01:23:32;96753.09;;;4.25;64.35
28267;BME280;15525;45.568;5.448;2022-12-13T01:26:02;96754.13;;;4.09;65.09
28267;BME280;15525;45.568;5.448;2022-12-13T01:28:28;96747.28;;;4.23;64.82
28267;BME280;15525;45.568;5.448;2022-12-13T01:30:58;96745.38;;;4.14;65.00
28267;BME280;15525;45.568;5.448;2022-12-13T01:33:25;96741.53;;;3.75;65.63
28267;BME280;15525;45.568;5.448;2022-12-13T01:35:51;96737.97;;;4.01;65.21
28267;BME280;15525;45.568;5.448;2022-12-13T01:38:16;96748.81;;;4.04;65.36
28267;BME280;15525;45.568;5.448;2022-12-13T01:40:47;96742.78;;;4.19;64.51
28267;BME280;15525;45.568;5.448;2022-12-13T01:43:14;96730.31;;;4.09;65.01
28267;BME280;15525;45.568;5.448;2022-12-13T01:45:41;96701.72;;;4.11;64.74
28267;BME280;15525;45.568;5.448;2022-12-13T01:48:16;96721.84;;;4.12;64.80
28267;BME280;15525;45.568;5.448;2022-12-13T01:50:47;96734.00;;;4.08;64.93
28267;BME280;15525;45.568;5.448;2022-12-13T01:53:18;96747.56;;;4.27;64.73
28267;BME280;15525;45.568;5.448;2022-12-13T01:55:49;96740.66;;;4.21;64.54
28267;BME280;15525;45.568;5.448;2022-12-13T01:58:17;96709.84;;;3.90;64.82
28267;BME280;15525;45.568;5.448;2022-12-13T02:00:45;96723.66;;;3.97;65.32
28267;BME280;15525;45.568;5.448;2022-12-13T02:03:11;96700.06;;;3.85;64.99
28267;BME280;15525;45.568;5.448;2022-12-13T02:05:40;96731.34;;;4.03;64.92
28267;BME280;15525;45.568;5.448;2022-12-13T02:08:10;96726.59;;;4.05;65.11
28267;BME280;15525;45.568;5.448;2022-12-13T02:10:37;96713.38;;;4.15;64.49
28267;BME280;15525;45.568;5.448;2022-12-13T02:13:03;96721.06;;;4.22;64.51
28267;BME280;15525;45.568;5.448;2022-12-13T02:24:25;96693.00;;;4.11;64.80
28267;BME280;15525;45.568;5.448;2022-12-13T02:32:24;96699.38;;;4.25;65.20
28267;BME280;15525;45.568;5.448;2022-12-13T02:37:36;96658.00;;;3.99;65.04
28267;BME280;15525;45.568;5.448;2022-12-13T02:40:19;96658.31;;;4.12;64.81
28267;BME280;15525;45.568;5.448;2022-12-13T02:45:28;96673.47;;;4.67;64.02
28267;BME280;15525;45.568;5.448;2022-12-13T02:47:56;96655.44;;;4.54;63.94
28267;BME280;15525;45.568;5.448;2022-12-13T02:50:25;96675.81;;;4.33;64.56
28267;BME280;15525;45.568;5.448;2022-12-13T02:52:52;96659.94;;;4.43;64.07
28267;BME280;15525;45.568;5.448;2022-12-13T02:55:18;96648.56;;;4.38;64.18
28267;BME280;15525;45.568;5.448;2022-12-13T02:57:44;96642.47;;;4.37;63.76
28267;BME280;15525;45.568;5.448;2022-12-13T03:02:48;96664.19;;;4.59;64.04
28267;BME280;15525;45.568;5.448;2022-12-13T03:08:20;96679.75;;;4.11;65.30
28267;BME280;15525;45.568;5.448;2022-12-13T03:11:10;96662.00;;;4.01;65.00
28267;BME280;15525;45.568;5.448;2022-12-13T03:14:01;96660.16;;;4.07;65.21
28267;BME280;15525;45.568;5.448;2022-12-13T03:16:41;96658.06;;;4.19;64.79
28267;BME280;15525;45.568;5.448;2022-12-13T03:19:09;96652.53;;;4.40;64.26
28267;BME280;15525;45.568;5.448;2022-12-13T03:21:47;96634.50;;;4.07;64.71
28267;BME280;15525;45.568;5.448;2022-12-13T03:24:15;96633.13;;;3.95;65.38
28267;BME280;15525;45.568;5.448;2022-12-13T03:26:40;96641.56;;;3.82;65.85
28267;BME280;15525;45.568;5.448;2022-12-13T03:29:06;96625.50;;;4.08;65.39
28267;BME280;15525;45.568;5.448;2022-12-13T03:31:31;96623.34;;;3.90;65.54
28267;BME280;15525;45.568;5.448;2022-12-13T03:33:57;96634.47;;;4.02;65.78
28267;BME280;15525;45.568;5.448;2022-12-13T03:36:23;96645.34;;;4.01;65.68
28267;BME280;15525;45.568;5.448;2022-12-13T03:38:50;96634.25;;;4.19;65.28
28267;BME280;15525;45.568;5.448;2022-12-13T03:41:19;96601.91;;;3.87;65.15
28267;BME280;15525;45.568;5.448;2022-12-13T03:43:46;96633.94;;;4.10;65.48
28267;BME280;15525;45.568;5.448;2022-12-13T03:46:11;96583.03;;;3.53;66.16
28267;BME280;15525;45.568;5.448;2022-12-13T03:48:37;96620.69;;;3.85;66.08
28267;BME280;15525;45.568;5.448;2022-12-13T03:51:03;96637.88;;;3.88;65.95
28267;BME280;15525;45.568;5.448;2022-12-13T03:53:29;96632.84;;;3.86;66.12
28267;BME280;15525;45.568;5.448;2022-12-13T03:55:55;96619.06;;;3.79;65.93
28267;BME280;15525;45.568;5.448;2022-12-13T03:58:21;96623.56;;;3.69;66.62
28267;BME280;15525;45.568;5.448;2022-12-13T04:00:46;96624.41;;;3.84;66.39
28267;BME280;15525;45.568;5.448;2022-12-13T04:03:12;96621.44;;;3.76;66.31
28267;BME280;15525;45.568;5.448;2022-12-13T04:05:37;96597.38;;;3.82;66.14
28267;BME280;15525;45.568;5.448;2022-12-13T04:08:03;96612.50;;;3.92;66.23
28267;BME280;15525;45.568;5.448;2022-12-13T04:10:29;96595.53;;;3.83;66.23
28267;BME280;15525;45.568;5.448;2022-12-13T04:12:55;96596.50;;;3.42;67.20
28267;BME280;15525;45.568;5.448;2022-12-13T04:15:39;96608.47;;;3.74;66.65
28267;BME280;15525;45.568;5.448;2022-12-13T04:18:04;96603.75;;;3.86;65.82
28267;BME280;15525;45.568;5.448;2022-12-13T04:20:30;96614.06;;;3.83;65.82
28267;BME280;15525;45.568;5.448;2022-12-13T04:22:56;96612.50;;;3.97;65.85
28267;BME280;15525;45.568;5.448;2022-12-13T04:25:21;96573.00;;;3.60;65.91
28267;BME280;15525;45.568;5.448;2022-12-13T04:27:47;96590.75;;;3.70;66.16
28267;BME280;15525;45.568;5.448;2022-12-13T04:30:12;96585.16;;;3.56;66.38
28267;BME280;15525;45.568;5.448;2022-12-13T04:32:38;96580.66;;;3.52;66.32
28267;BME280;15525;45.568;5.448;2022-12-13T04:35:03;96602.63;;;3.57;66.65
28267;BME280;15525;45.568;5.448;2022-12-13T04:37:29;96588.38;;;3.78;65.81
28267;BME280;15525;45.568;5.448;2022-12-13T04:39:55;96593.09;;;3.61;66.32
28267;BME280;15525;45.568;5.448;2022-12-13T04:42:21;96561.41;;;3.86;65.60
28267;BME280;15525;45.568;5.448;2022-12-13T04:44:46;96550.56;;;3.78;65.47
28267;BME280;15525;45.568;5.448;2022-12-13T04:47:14;96551.09;;;3.85;65.01
28267;BME280;15525;45.568;5.448;2022-12-13T04:49:39;96591.81;;;3.69;65.79
28267;BME280;15525;45.568;5.448;2022-12-13T04:52:04;96564.19;;;3.35;66.75
28267;BME280;15525;45.568;5.448;2022-12-13T04:54:31;96592.38;;;3.91;65.86
28267;BME280;15525;45.568;5.448;2022-12-13T04:56:56;96547.91;;;3.78;65.27
28267;BME280;15525;45.568;5.448;2022-12-13T04:59:22;96564.06;;;3.71;65.40
28267;BME280;15525;45.568;5.448;2022-12-13T05:01:48;96608.22;;;3.81;65.72
28267;BME280;15525;45.568;5.448;2022-12-13T05:04:13;96572.25;;;3.70;65.78
28267;BME280;15525;45.568;5.448;2022-12-13T05:06:38;96602.69;;;3.97;65.70
28267;BME280;15525;45.568;5.448;2022-12-13T05:09:04;96576.44;;;3.61;66.21
28267;BME280;15525;45.568;5.448;2022-12-13T05:11:29;96601.88;;;3.77;65.37
28267;BME280;15525;45.568;5.448;2022-12-13T05:13:54;96581.78;;;3.91;65.29
28267;BME280;15525;45.568;5.448;2022-12-13T05:16:20;96560.66;;;4.11;64.44
28267;BME280;15525;45.568;5.448;2022-12-13T05:18:45;96629.50;;;4.61;64.38
28267;BME280;15525;45.568;5.448;2022-12-13T05:21:11;96600.34;;;4.21;64.53
28267;BME280;15525;45.568;5.448;2022-12-13T05:23:37;96561.19;;;4.28;64.13
28267;BME280;15525;45.568;5.448;2022-12-13T05:26:03;96589.75;;;4.41;64.21
28267;BME280;15525;45.568;5.448;2022-12-13T05:28:29;96565.38;;;4.14;64.27
28267;BME280;15525;45.568;5.448;2022-12-13T05:31:05;96551.66;;;3.97;64.70
28267;BME280;15525;45.568;5.448;2022-12-13T05:33:31;96594.00;;;4.02;65.20
28267;BME280;15525;45.568;5.448;2022-12-13T05:35:56;96587.88;;;3.91;65.79
28267;BME280;15525;45.568;5.448;2022-12-13T05:38:22;96568.00;;;3.69;66.17
28267;BME280;15525;45.568;5.448;2022-12-13T05:40:47;96563.25;;;3.76;65.69
28267;BME280;15525;45.568;5.448;2022-12-13T05:43:13;96569.63;;;3.95;65.61
28267;BME280;15525;45.568;5.448;2022-12-13T05:45:38;96620.72;;;4.05;66.04
28267;BME280;15525;45.568;5.448;2022-12-13T05:48:03;96626.31;;;4.19;65.69
28267;BME280;15525;45.568;5.448;2022-12-13T05:50:29;96606.16;;;4.18;65.59
28267;BME280;15525;45.568;5.448;2022-12-13T05:52:54;96592.41;;;4.21;65.16
28267;BME280;15525;45.568;5.448;2022-12-13T05:55:20;96597.94;;;3.89;66.05
28267;BME280;15525;45.568;5.448;2022-12-13T05:57:45;96624.97;;;4.16;66.32
28267;BME280;15525;45.568;5.448;2022-12-13T06:00:11;96609.31;;;4.00;66.17
28267;BME280;15525;45.568;5.448;2022-12-13T06:02:41;96569.84;;;3.63;66.61
28267;BME280;15525;45.568;5.448;2022-12-13T06:05:08;96600.09;;;4.12;65.77
28267;BME280;15525;45.568;5.448;2022-12-13T06:07:37;96591.59;;;3.95;66.17
28267;BME280;15525;45.568;5.448;2022-12-13T06:10:04;96605.09;;;3.94;66.19
28267;BME280;15525;45.568;5.448;2022-12-13T06:12:29;96600.59;;;3.94;66.43
28267;BME280;15525;45.568;5.448;2022-12-13T06:14:55;96584.47;;;4.11;65.92
28267;BME280;15525;45.568;5.448;2022-12-13T06:17:20;96595.06;;;4.06;65.20
28267;BME280;15525;45.568;5.448;2022-12-13T06:19:49;96643.53;;;4.36;65.49
28267;BME280;15525;45.568;5.448;2022-12-13T06:22:15;96604.00;;;3.75;66.40
28267;BME280;15525;45.568;5.448;2022-12-13T06:24:40;96662.56;;;4.23;65.93
28267;BME280;15525;45.568;5.448;2022-12-13T06:27:06;96671.06;;;4.55;65.32
28267;BME280;15525;45.568;5.448;2022-12-13T06:29:31;96644.31;;;4.42;65.69
28267;BME280;15525;45.568;5.448;2022-12-13T06:31:58;96629.47;;;4.21;65.91
28267;BME280;15525;45.568;5.448;2022-12-13T06:34:25;96653.31;;;4.66;65.76
28267;BME280;15525;45.568;5.448;2022-12-13T06:36:50;96636.09;;;4.38;65.66
28267;BME280;15525;45.568;5.448;2022-12-13T06:39:16;96664.19;;;4.59;65.63
28267;BME280;15525;45.568;5.448;2022-12-13T06:41:41;96601.41;;;4.30;65.40
28267;BME280;15525;45.568;5.448;2022-12-13T06:44:07;96668.41;;;4.45;66.47
28267;BME280;15525;45.568;5.448;2022-12-13T06:46:32;96666.28;;;4.27;66.20
28267;BME280;15525;45.568;5.448;2022-12-13T06:48:58;96681.41;;;4.47;66.21
28267;BME280;15525;45.568;5.448;2022-12-13T06:51:23;96652.28;;;4.42;66.12
28267;BME280;15525;45.568;5.448;2022-12-13T06:53:49;96629.97;;;4.13;66.36
28267;BME280;15525;45.568;5.448;2022-12-13T06:56:14;96675.03;;;4.63;65.84
28267;BME280;15525;45.568;5.448;2022-12-13T06:58:41;96689.34;;;4.67;65.91
28267;BME280;15525;45.568;5.448;2022-12-13T07:01:12;96688.53;;;4.46;66.52
28267;BME280;15525;45.568;5.448;2022-12-13T07:03:38;96668.41;;;4.45;65.96
28267;BME280;15525;45.568;5.448;2022-12-13T07:06:12;96661.81;;;4.48;66.02
28267;BME280;15525;45.568;5.448;2022-12-13T07:08:38;96665.25;;;4.63;65.88
28267;BME280;15525;45.568;5.448;2022-12-13T07:11:04;96692.78;;;4.92;65.06
28267;BME280;15525;45.568;5.448;2022-12-13T07:13:29;96672.66;;;4.56;65.75
28267;BME280;15525;45.568;5.448;2022-12-13T07:15:55;96694.41;;;4.68;65.87
28267;BME280;15525;45.568;5.448;2022-12-13T07:18:21;96692.78;;;4.87;65.20
28267;BME280;15525;45.568;5.448;2022-12-13T07:20:47;96667.91;;;4.48;65.62
28267;BME280;15525;45.568;5.448;2022-12-13T07:23:12;96708.97;;;4.71;65.58
28267;BME280;15525;45.568;5.448;2022-12-13T07:25:39;96727.50;;;4.76;65.57
28267;BME280;15525;45.568;5.448;2022-12-13T07:28:06;96731.22;;;4.80;65.11
28267;BME280;15525;45.568;5.448;2022-12-13T07:30:34;96710.53;;;4.82;65.01
28267;BME280;15525;45.568;5.448;2022-12-13T07:33:01;96717.69;;;4.66;65.45
28267;BME280;15525;45.568;5.448;2022-12-13T07:35:28;96696.22;;;4.48;65.99
28267;BME280;15525;45.568;5.448;2022-12-13T07:37:53;96688.78;;;4.20;66.85
28267;BME280;15525;45.568;5.448;2022-12-13T07:40:19;96702.53;;;4.17;67.07
28267;BME280;15525;45.568;5.448;2022-12-13T07:42:49;96719.50;;;4.31;67.29
28267;BME280;15525;45.568;5.448;2022-12-13T07:45:14;96707.31;;;4.20;67.09
28267;BME280;15525;45.568;5.448;2022-12-13T07:47:40;96691.94;;;4.17;66.82
28267;BME280;15525;45.568;5.448;2022-12-13T07:50:05;96682.94;;;4.23;66.83
28267;BME280;15525;45.568;5.448;2022-12-13T07:52:31;96700.09;;;4.00;67.40
28267;BME280;15525;45.568;5.448;2022-12-13T07:54:56;96697.81;;;4.39;66.36
28267;BME280;15525;45.568;5.448;2022-12-13T07:57:22;96718.50;;;4.47;65.92
28267;BME280;15525;45.568;5.448;2022-12-13T07:59:47;96721.41;;;4.50;66.21
28267;BME280;15525;45.568;5.448;2022-12-13T08:02:12;96741.59;;;3.85;67.60
28267;BME280;15525;45.568;5.448;2022-12-13T08:04:38;96692.13;;;3.90;66.87
28267;BME280;15525;45.568;5.448;2022-12-13T08:07:07;96751.03;;;4.47;66.48
28267;BME280;15525;45.568;5.448;2022-12-13T08:09:35;96758.50;;;4.65;66.17
28267;BME280;15525;45.568;5.448;2022-12-13T08:12:01;96751.03;;;4.47;66.21
28267;BME280;15525;45.568;5.448;2022-12-13T08:14:26;96760.38;;;4.80;65.99
28267;BME280;15525;45.568;5.448;2022-12-13T08:16:52;96766.19;;;4.87;65.73
28267;BME280;15525;45.568;5.448;2022-12-13T08:19:17;96699.44;;;4.75;64.78
28267;BME280;15525;45.568;5.448;2022-12-13T08:21:43;96729.34;;;4.40;65.76
28267;BME280;15525;45.568;5.448;2022-12-13T08:24:09;96710.50;;;4.37;65.88
28267;BME280;15525;45.568;5.448;2022-12-13T08:26:34;96738.88;;;4.66;65.60
28267;BME280;15525;45.568;5.448;2022-12-13T08:29:00;96702.59;;;4.57;65.03
28267;BME280;15525;45.568;5.448;2022-12-13T08:31:25;96749.47;;;4.56;65.49
28267;BME280;15525;45.568;5.448;2022-12-13T08:33:50;96702.03;;;4.35;65.51
28267;BME280;15525;45.568;5.448;2022-12-13T08:36:16;96709.72;;;4.51;65.30
28267;BME280;15525;45.568;5.448;2022-12-13T08:38:43;96742.09;;;4.68;65.31
28267;BME280;15525;45.568;5.448;2022-12-13T08:41:09;96759.81;;;4.73;65.70
28267;BME280;15525;45.568;5.448;2022-12-13T08:43:35;96776.84;;;4.97;65.40
28267;BME280;15525;45.568;5.448;2022-12-13T08:46:01;96729.91;;;4.72;65.40
28267;BME280;15525;45.568;5.448;2022-12-13T08:48:26;96774.16;;;5.27;64.79
28267;BME280;15525;45.568;5.448;2022-12-13T08:50:52;96748.97;;;5.14;65.01
28267;BME280;15525;45.568;5.448;2022-12-13T08:53:18;96746.31;;;4.69;65.55
28267;BME280;15525;45.568;5.448;2022-12-13T08:55:43;96750.28;;;4.77;65.19
28267;BME280;15525;45.568;5.448;2022-12-13T08:58:09;96751.34;;;4.81;65.38
28267;BME280;15525;45.568;5.448;2022-12-13T09:00:35;96760.63;;;4.93;65.42
28267;BME280;15525;45.568;5.448;2022-12-13T09:03:02;96791.63;;;4.78;65.82
28267;BME280;15525;45.568;5.448;2022-12-13T09:05:28;96755.84;;;4.55;66.08
28267;BME280;15525;45.568;5.448;2022-12-13T09:07:55;96764.63;;;4.91;65.75
28267;BME280;15525;45.568;5.448;2022-12-13T09:10:21;96795.13;;;5.28;64.86
28267;BME280;15525;45.568;5.448;2022-12-13T09:12:47;96729.59;;;4.64;65.31
28267;BME280;15525;45.568;5.448;2022-12-13T09:15:12;96792.44;;;4.93;65.48
28267;BME280;15525;45.568;5.448;2022-12-13T09:17:38;96795.84;;;4.59;66.14
28267;BME280;15525;45.568;5.448;2022-12-13T09:20:05;96825.06;;;5.09;65.57
28267;BME280;15525;45.568;5.448;2022-12-13T09:22:31;96805.44;;;4.95;65.68
28267;BME280;15525;45.568;5.448;2022-12-13T09:24:57;96806.13;;;4.40;66.81
28267;BME280;15525;45.568;5.448;2022-12-13T09:27:22;96799.03;;;4.61;66.00
28267;BME280;15525;45.568;5.448;2022-12-13T09:29:49;96799.31;;;4.69;66.32
28267;BME280;15525;45.568;5.448;2022-12-13T09:32:14;96789.53;;;5.00;65.23
28267;BME280;15525;45.568;5.448;2022-12-13T09:34:39;96812.25;;;4.51;66.48
28267;BME280;15525;45.568;5.448;2022-12-13T09:37:05;96845.44;;;4.83;65.67
28267;BME280;15525;45.568;5.448;2022-12-13T09:39:30;96847.34;;;5.18;65.39
28267;BME280;15525;45.568;5.448;2022-12-13T09:42:00;96818.69;;;5.05;65.45
28267;BME280;15525;45.568;5.448;2022-12-13T09:44:30;96852.13;;;5.41;64.81
28267;BME280;15525;45.568;5.448;2022-12-13T09:46:58;96855.34;;;5.43;64.79
28267;BME280;15525;45.568;5.448;2022-12-13T09:51:56;96860.03;;;4.96;65.87
28267;BME280;15525;45.568;5.448;2022-12-13T09:54:23;96847.00;;;4.64;66.47
28267;BME280;15525;45.568;5.448;2022-12-13T09:56:49;96859.25;;;4.95;66.03
28267;BME280;15525;45.568;5.448;2022-12-13T09:59:25;96836.66;;;4.73;66.32
28267;BME280;15525;45.568;5.448;2022-12-13T10:01:52;96852.91;;;5.11;65.61
28267;BME280;15525;45.568;5.448;2022-12-13T10:04:17;96820.81;;;4.88;65.83
28267;BME280;15525;45.568;5.448;2022-12-13T10:06:43;96837.00;;;5.11;65.17
28267;BME280;15525;45.568;5.448;2022-12-13T10:09:12;96860.00;;;4.71;66.70
28267;BME280;15525;45.568;5.448;2022-12-13T10:11:47;96822.66;;;4.87;65.67
28267;BME280;15525;45.568;5.448;2022-12-13T10:14:30;96852.69;;;5.38;65.43
28267;BME280;15525;45.568;5.448;2022-12-13T10:17:02;96852.69;;;5.48;65.21
28267;BME280;15525;45.568;5.448;2022-12-13T10:19:39;96844.44;;;5.34;65.04
28267;BME280;15525;45.568;5.448;2022-12-13T10:22:10;96854.28;;;5.24;65.67
28267;BME280;15525;45.568;5.448;2022-12-13T10:24:54;96814.97;;;5.51;64.98
28267;BME280;15525;45.568;5.448;2022-12-13T10:27:47;96825.34;;;5.27;65.46
28267;BME280;15525;45.568;5.448;2022-12-13T10:30:19;96838.88;;;5.46;65.13
28267;BME280;15525;45.568;5.448;2022-12-13T10:32:53;96833.28;;;5.52;65.02
28267;BME280;15525;45.568;5.448;2022-12-13T10:35:36;96805.97;;;5.62;64.63
28267;BME280;15525;45.568;5.448;2022-12-13T10:38:26;96836.22;;;5.66;64.80
28267;BME280;15525;45.568;5.448;2022-12-13T10:40:53;96818.97;;;5.33;65.00
28267;BME280;15525;45.568;5.448;2022-12-13T10:43:23;96829.31;;;5.55;64.90
28267;BME280;15525;45.568;5.448;2022-12-13T10:48:28;96837.25;;;5.05;65.55
28267;BME280;15525;45.568;5.448;2022-12-13T10:51:01;96796.97;;;5.23;65.63
28267;BME280;15525;45.568;5.448;2022-12-13T10:53:37;96828.28;;;5.56;65.13
28267;BME280;15525;45.568;5.448;2022-12-13T10:56:04;96816.06;;;5.30;65.51
28267;BME280;15525;45.568;5.448;2022-12-13T10:58:39;96776.81;;;5.22;65.27
28267;BME280;15525;45.568;5.448;2022-12-13T11:03:40;96813.09;;;5.66;64.65
28267;BME280;15525;45.568;5.448;2022-12-13T11:06:13;96817.06;;;5.99;64.10
28267;BME280;15525;45.568;5.448;2022-12-13T11:08:38;96805.22;;;5.26;65.14
28267;BME280;15525;45.568;5.448;2022-12-13T11:11:08;96813.94;;;5.57;64.65
28267;BME280;15525;45.568;5.448;2022-12-13T11:13:43;96828.25;;;5.61;65.18
28267;BME280;15525;45.568;5.448;2022-12-13T11:16:30;96826.63;;;5.65;64.88
28267;BME280;15525;45.568;5.448;2022-12-13T11:18:59;96796.16;;;5.42;65.17
28267;BME280;15525;45.568;5.448;2022-12-13T11:21:28;96827.72;;;5.79;64.59
28267;BME280;15525;45.568;5.448;2022-12-13T11:23:56;96774.34;;;5.80;64.00
28267;BME280;15525;45.568;5.448;2022-12-13T11:26:24;96800.31;;;6.13;63.92
28267;BME280;15525;45.568;5.448;2022-12-13T11:37:21;96824.75;;;6.00;63.27
28267;BME280;15525;45.568;5.448;2022-12-13T11:39:51;96829.81;;;5.77;64.41
28267;BME280;15525;45.568;5.448;2022-12-13T11:43:00;96792.72;;;5.32;65.25
28267;BME280;15525;45.568;5.448;2022-12-13T11:45:27;96806.47;;;5.64;64.90
28267;BME280;15525;45.568;5.448;2022-12-13T11:50:34;96820.81;;;5.83;64.67
28267;BME280;15525;45.568;5.448;2022-12-13T11:58:33;96826.09;;;5.98;64.13
28267;BME280;15525;45.568;5.448;2022-12-13T12:01:14;96802.50;;;5.81;64.31
28267;BME280;15525;45.568;5.448;2022-12-13T12:03:49;96819.19;;;5.77;64.27
28267;BME280;15525;45.568;5.448;2022-12-13T12:06:25;96811.19;;;6.12;64.18
28267;BME280;15525;45.568;5.448;2022-12-13T12:08:59;96787.50;;;6.20;63.73
28267;BME280;15525;45.568;5.448;2022-12-13T12:11:59;96794.97;;;6.18;63.86
28267;BME280;15525;45.568;5.448;2022-12-13T12:14:46;96792.13;;;5.80;64.62
28267;BME280;15525;45.568;5.448;2022-12-13T12:17:19;96786.09;;;5.44;65.37
28267;BME280;15525;45.568;5.448;2022-12-13T12:19:48;96799.34;;;5.54;65.73
28267;BME280;15525;45.568;5.448;2022-12-13T12:27:54;96774.91;;;5.82;65.15
28267;BME280;15525;45.568;5.448;2022-12-13T12:30:52;96777.41;;;6.17;64.11
28267;BME280;15525;45.568;5.448;2022-12-13T12:36:16;96778.19;;;6.23;63.97
28267;BME280;15525;45.568;5.448;2022-12-13T12:47:35;96788.03;;;6.17;64.06
28267;BME280;15525;45.568;5.448;2022-12-13T12:50:17;96777.59;;;6.36;64.33
28267;BME280;15525;45.568;5.448;2022-12-13T12:56:19;96764.44;;;6.64;63.15
28267;BME280;15525;45.568;5.448;2022-12-13T13:04:42;96776.06;;;6.30;63.90
28267;BME280;15525;45.568;5.448;2022-12-13T13:07:15;96766.34;;;6.54;63.61
28267;BME280;15525;45.568;5.448;2022-12-13T13:09:43;96775.03;;;6.69;63.51
28267;BME280;15525;45.568;5.448;2022-12-13T13:12:09;96746.78;;;6.40;63.19
28267;BME280;15525;45.568;5.448;2022-12-13T13:14:37;96777.91;;;6.78;63.15
28267;BME280;15525;45.568;5.448;2022-12-13T13:19:44;96767.84;;;6.75;62.99
28267;BME280;15525;45.568;5.448;2022-12-13T13:22:36;96770.63;;;6.50;63.30
28267;BME280;15525;45.568;5.448;2022-12-13T13:27:31;96767.16;;;6.54;63.47
28267;BME280;15525;45.568;5.448;2022-12-13T13:30:14;96774.13;;;6.89;62.72
28267;BME280;15525;45.568;5.448;2022-12-13T13:32:40;96761.06;;;6.49;63.44
28267;BME280;15525;45.568;5.448;2022-12-13T13:40:40;96762.78;;;6.25;64.31
28267;BME280;15525;45.568;5.448;2022-12-13T13:54:03;96762.19;;;6.38;64.45
28267;BME280;15525;45.568;5.448;2022-12-13T14:11:16;96770.84;;;6.00;65.81
28267;BME280;15525;45.568;5.448;2022-12-13T14:22:44;96758.19;;;5.62;66.27
28267;BME280;15525;45.568;5.448;2022-12-13T14:25:32;96775.41;;;5.89;66.07
28267;BME280;15525;45.568;5.448;2022-12-13T14:28:12;96745.81;;;6.21;65.21
28267;BME280;15525;45.568;5.448;2022-12-13T14:30:43;96742.09;;;6.22;64.84
28267;BME280;15525;45.568;5.448;2022-12-13T14:33:19;96762.72;;;6.40;64.43
28267;BME280;15525;45.568;5.448;2022-12-13T14:35:52;96754.78;;;6.35;64.71
28267;BME280;15525;45.568;5.448;2022-12-13T14:38:26;96759.75;;;5.83;65.64
28267;BME280;15525;45.568;5.448;2022-12-13T14:40:57;96744.38;;;5.70;66.03
28267;BME280;15525;45.568;5.448;2022-12-13T14:43:28;96759.75;;;5.93;65.88
28267;BME280;15525;45.568;5.448;2022-12-13T14:45:56;96753.91;;;5.76;66.05
28267;BME280;15525;45.568;5.448;2022-12-13T14:48:22;96744.84;;;5.97;65.83
28267;BME280;15525;45.568;5.448;2022-12-13T14:50:48;96755.75;;;5.85;65.87
28267;BME280;15525;45.568;5.448;2022-12-13T14:53:36;96736.66;;;5.78;66.00
28267;BME280;15525;45.568;5.448;2022-12-13T14:58:30;96741.69;;;5.80;66.57
28267;BME280;15525;45.568;5.448;2022-12-13T15:00:55;96715.72;;;5.72;66.23
28267;BME280;15525;45.568;5.448;2022-12-13T15:03:24;96743.81;;;5.93;66.21
28267;BME280;15525;45.568;5.448;2022-12-13T15:05:58;96722.59;;;5.88;65.92
28267;BME280;15525;45.568;5.448;2022-12-13T15:08:25;96720.66;;;5.98;65.63
28267;BME280;15525;45.568;5.448;2022-12-13T15:10:54;96746.44;;;5.98;65.88
28267;BME280;15525;45.568;5.448;2022-12-13T15:13:41;96734.34;;;5.52;66.40
28267;BME280;15525;45.568;5.448;2022-12-13T15:16:24;96750.75;;;5.69;66.42
28267;BME280;15525;45.568;5.448;2022-12-13T15:21:37;96753.44;;;5.54;66.76
28267;BME280;15525;45.568;5.448;2022-12-13T15:24:03;96761.34;;;5.89;66.25
28267;BME280;15525;45.568;5.448;2022-12-13T15:26:30;96728.72;;;5.73;65.95